sensor_id;sensor_type;location;lat;lon;timestamp;P1;durP1;ratioP1;P2;durP2;ratioP2
42964;SDS011;28604;51.204;22.552;2022-09-30T00:01:41;20.30;;;12.80;;
42964;SDS011;28604;51.204;22.552;2022-09-30T00:04:15;21.60;;;13.13;;
42964;SDS011;28604;51.204;22.552;2022-09-30T00:06:46;22.50;;;13.02;;
42964;SDS011;28604;51.204;22.552;2022-09-30T00:09:13;18.50;;;11.85;;
42964;SDS011;28604;51.204;22.552;2022-09-30T00:11:40;20.15;;;12.05;;
42964;SDS011;28604;51.204;22.552;2022-09-30T00:14:07;18.35;;;11.27;;
42964;SDS011;28604;51.204;22.552;2022-09-30T00:16:37;19.45;;;11.57;;
42964;SDS011;28604;51.204;22.552;2022-09-30T00:19:03;18.30;;;11.85;;
42964;SDS011;28604;51.204;22.552;2022-09-30T00:21:30;16.95;;;10.68;;
42964;SDS011;28604;51.204;22.552;2022-09-30T00:24:00;19.60;;;12.27;;
42964;SDS011;28604;51.204;22.552;2022-09-30T00:26:27;16.45;;;10.93;;
42964;SDS011;28604;51.204;22.552;2022-09-30T00:28:54;18.23;;;10.63;;
42964;SDS011;28604;51.204;22.552;2022-09-30T00:31:23;15.95;;;11.50;;
42964;SDS011;28604;51.204;22.552;2022-09-30T00:33:51;21.58;;;13.13;;
42964;SDS011;28604;51.204;22.552;2022-09-30T00:36:33;22.40;;;12.50;;
42964;SDS011;28604;51.204;22.552;2022-09-30T00:39:06;16.88;;;11.45;;
42964;SDS011;28604;51.204;22.552;2022-09-30T00:41:34;19.17;;;12.57;;
42964;SDS011;28604;51.204;22.552;2022-09-30T00:43:59;20.77;;;11.23;;
42964;SDS011;28604;51.204;22.552;2022-09-30T00:49:04;28.45;;;13.90;;
42964;SDS011;28604;51.204;22.552;2022-09-30T00:51:40;21.08;;;13.57;;
42964;SDS011;28604;51.204;22.552;2022-09-30T00:54:11;22.25;;;13.75;;
42964;SDS011;28604;51.204;22.552;2022-09-30T00:56:51;17.77;;;12.80;;
42964;SDS011;28604;51.204;22.552;2022-09-30T00:59:23;20.53;;;12.40;;
42964;SDS011;28604;51.204;22.552;2022-09-30T01:01:51;17.40;;;10.75;;
42964;SDS011;28604;51.204;22.552;2022-09-30T01:04:19;19.52;;;12.52;;
42964;SDS011;28604;51.204;22.552;2022-09-30T01:06:48;21.60;;;12.88;;
42964;SDS011;28604;51.204;22.552;2022-09-30T01:09:14;19.27;;;12.15;;
42964;SDS011;28604;51.204;22.552;2022-09-30T01:11:40;22.58;;;11.68;;
42964;SDS011;28604;51.204;22.552;2022-09-30T01:14:11;19.33;;;12.05;;
42964;SDS011;28604;51.204;22.552;2022-09-30T01:16:53;24.90;;;12.52;;
42964;SDS011;28604;51.204;22.552;2022-09-30T01:33:24;20.77;;;11.35;;
42964;SDS011;28604;51.204;22.552;2022-09-30T01:39:11;25.92;;;14.73;;
42964;SDS011;28604;51.204;22.552;2022-09-30T01:42:21;24.77;;;14.70;;
42964;SDS011;28604;51.204;22.552;2022-09-30T01:47:47;27.60;;;16.58;;
42964;SDS011;28604;51.204;22.552;2022-09-30T01:50:23;28.80;;;17.20;;
42964;SDS011;28604;51.204;22.552;2022-09-30T01:59:04;33.08;;;16.95;;
42964;SDS011;28604;51.204;22.552;2022-09-30T02:01:03;30.75;;;18.30;;
42964;SDS011;28604;51.204;22.552;2022-09-30T02:03:34;29.65;;;16.67;;
42964;SDS011;28604;51.204;22.552;2022-09-30T02:06:09;26.38;;;15.45;;
42964;SDS011;28604;51.204;22.552;2022-09-30T02:08:46;21.00;;;13.15;;
42964;SDS011;28604;51.204;22.552;2022-09-30T02:11:27;26.73;;;15.65;;
42964;SDS011;28604;51.204;22.552;2022-09-30T02:14:16;23.23;;;12.52;;
42964;SDS011;28604;51.204;22.552;2022-09-30T02:19:44;28.63;;;14.95;;
42964;SDS011;28604;51.204;22.552;2022-09-30T02:22:18;62.10;;;35.58;;
42964;SDS011;28604;51.204;22.552;2022-09-30T02:24:49;37.65;;;22.52;;
42964;SDS011;28604;51.204;22.552;2022-09-30T02:27:24;38.07;;;22.00;;
42964;SDS011;28604;51.204;22.552;2022-09-30T02:29:55;37.63;;;21.35;;
42964;SDS011;28604;51.204;22.552;2022-09-30T02:32:30;40.67;;;21.20;;
42964;SDS011;28604;51.204;22.552;2022-09-30T02:35:04;35.03;;;21.35;;
42964;SDS011;28604;51.204;22.552;2022-09-30T02:37:41;30.25;;;19.50;;
42964;SDS011;28604;51.204;22.552;2022-09-30T02:40:33;35.55;;;20.13;;
42964;SDS011;28604;51.204;22.552;2022-09-30T02:43:04;37.72;;;22.13;;
42964;SDS011;28604;51.204;22.552;2022-09-30T02:45:42;36.85;;;21.40;;
42964;SDS011;28604;51.204;22.552;2022-09-30T02:48:26;35.08;;;20.40;;
42964;SDS011;28604;51.204;22.552;2022-09-30T02:51:14;40.25;;;21.75;;
42964;SDS011;28604;51.204;22.552;2022-09-30T02:53:50;33.67;;;19.90;;
42964;SDS011;28604;51.204;22.552;2022-09-30T02:56:33;39.58;;;20.08;;
42964;SDS011;28604;51.204;22.552;2022-09-30T02:59:15;34.08;;;21.05;;
42964;SDS011;28604;51.204;22.552;2022-09-30T03:01:41;33.72;;;19.23;;
42964;SDS011;28604;51.204;22.552;2022-09-30T03:04:08;36.53;;;18.67;;
42964;SDS011;28604;51.204;22.552;2022-09-30T03:06:37;30.52;;;18.10;;
42964;SDS011;28604;51.204;22.552;2022-09-30T03:09:04;34.13;;;19.95;;
42964;SDS011;28604;51.204;22.552;2022-09-30T03:11:30;31.05;;;18.75;;
42964;SDS011;28604;51.204;22.552;2022-09-30T03:22:33;37.22;;;23.02;;
42964;SDS011;28604;51.204;22.552;2022-09-30T03:25:13;45.28;;;25.45;;
42964;SDS011;28604;51.204;22.552;2022-09-30T03:30:47;45.33;;;24.02;;
42964;SDS011;28604;51.204;22.552;2022-09-30T03:33:38;40.05;;;22.95;;
42964;SDS011;28604;51.204;22.552;2022-09-30T03:36:30;37.08;;;20.25;;
42964;SDS011;28604;51.204;22.552;2022-09-30T03:41:48;40.97;;;21.73;;
42964;SDS011;28604;51.204;22.552;2022-09-30T03:44:24;37.92;;;20.98;;
42964;SDS011;28604;51.204;22.552;2022-09-30T03:46:56;41.67;;;22.10;;
42964;SDS011;28604;51.204;22.552;2022-09-30T03:49:27;36.60;;;20.95;;
42964;SDS011;28604;51.204;22.552;2022-09-30T03:51:57;38.15;;;21.10;;
42964;SDS011;28604;51.204;22.552;2022-09-30T03:54:24;40.72;;;22.40;;
42964;SDS011;28604;51.204;22.552;2022-09-30T03:56:50;46.95;;;22.10;;
42964;SDS011;28604;51.204;22.552;2022-09-30T03:59:23;37.30;;;19.83;;
42964;SDS011;28604;51.204;22.552;2022-09-30T04:01:52;34.35;;;18.48;;
42964;SDS011;28604;51.204;22.552;2022-09-30T04:04:18;30.42;;;18.17;;
42964;SDS011;28604;51.204;22.552;2022-09-30T04:06:44;30.00;;;19.13;;
42964;SDS011;28604;51.204;22.552;2022-09-30T04:09:11;30.83;;;17.17;;
42964;SDS011;28604;51.204;22.552;2022-09-30T04:11:37;28.42;;;18.02;;
42964;SDS011;28604;51.204;22.552;2022-09-30T04:14:03;32.78;;;17.85;;
42964;SDS011;28604;51.204;22.552;2022-09-30T04:16:30;34.25;;;18.00;;
42964;SDS011;28604;51.204;22.552;2022-09-30T04:18:56;31.73;;;17.73;;
42964;SDS011;28604;51.204;22.552;2022-09-30T04:21:23;30.92;;;16.00;;
42964;SDS011;28604;51.204;22.552;2022-09-30T04:23:49;28.75;;;16.70;;
42964;SDS011;28604;51.204;22.552;2022-09-30T04:26:16;29.40;;;17.15;;
42964;SDS011;28604;51.204;22.552;2022-09-30T04:28:44;29.02;;;17.63;;
42964;SDS011;28604;51.204;22.552;2022-09-30T04:31:10;29.73;;;14.82;;
42964;SDS011;28604;51.204;22.552;2022-09-30T04:33:38;25.67;;;14.60;;
42964;SDS011;28604;51.204;22.552;2022-09-30T04:36:05;22.33;;;14.88;;
42964;SDS011;28604;51.204;22.552;2022-09-30T04:38:31;34.67;;;17.02;;
42964;SDS011;28604;51.204;22.552;2022-09-30T04:41:00;29.58;;;16.75;;
42964;SDS011;28604;51.204;22.552;2022-09-30T04:43:28;26.75;;;15.38;;
42964;SDS011;28604;51.204;22.552;2022-09-30T04:45:54;29.70;;;16.08;;
42964;SDS011;28604;51.204;22.552;2022-09-30T04:48:22;28.08;;;15.85;;
42964;SDS011;28604;51.204;22.552;2022-09-30T04:50:49;28.08;;;16.20;;
42964;SDS011;28604;51.204;22.552;2022-09-30T04:53:16;29.13;;;16.60;;
42964;SDS011;28604;51.204;22.552;2022-09-30T04:55:42;28.08;;;15.15;;
42964;SDS011;28604;51.204;22.552;2022-09-30T04:58:09;29.48;;;15.82;;
42964;SDS011;28604;51.204;22.552;2022-09-30T05:00:35;32.65;;;17.40;;
42964;SDS011;28604;51.204;22.552;2022-09-30T05:03:02;25.48;;;15.40;;
42964;SDS011;28604;51.204;22.552;2022-09-30T05:05:28;22.98;;;16.02;;
42964;SDS011;28604;51.204;22.552;2022-09-30T05:08:01;30.38;;;15.95;;
42964;SDS011;28604;51.204;22.552;2022-09-30T05:10:28;23.33;;;14.88;;
42964;SDS011;28604;51.204;22.552;2022-09-30T05:12:54;27.67;;;14.38;;
42964;SDS011;28604;51.204;22.552;2022-09-30T05:15:22;36.90;;;17.52;;
42964;SDS011;28604;51.204;22.552;2022-09-30T05:17:49;23.08;;;14.60;;
42964;SDS011;28604;51.204;22.552;2022-09-30T05:20:15;29.60;;;17.45;;
42964;SDS011;28604;51.204;22.552;2022-09-30T05:22:41;30.17;;;16.67;;
42964;SDS011;28604;51.204;22.552;2022-09-30T05:25:07;28.35;;;16.70;;
42964;SDS011;28604;51.204;22.552;2022-09-30T05:27:33;29.17;;;15.13;;
42964;SDS011;28604;51.204;22.552;2022-09-30T05:29:59;26.90;;;14.75;;
42964;SDS011;28604;51.204;22.552;2022-09-30T05:32:25;25.45;;;15.57;;
42964;SDS011;28604;51.204;22.552;2022-09-30T05:34:51;25.63;;;15.05;;
42964;SDS011;28604;51.204;22.552;2022-09-30T05:37:19;22.27;;;14.68;;
42964;SDS011;28604;51.204;22.552;2022-09-30T05:39:45;21.05;;;15.13;;
42964;SDS011;28604;51.204;22.552;2022-09-30T05:42:11;23.50;;;16.88;;
42964;SDS011;28604;51.204;22.552;2022-09-30T05:44:37;22.65;;;15.88;;
42964;SDS011;28604;51.204;22.552;2022-09-30T05:47:03;24.08;;;16.27;;
42964;SDS011;28604;51.204;22.552;2022-09-30T05:49:29;24.40;;;16.02;;
42964;SDS011;28604;51.204;22.552;2022-09-30T05:51:56;24.83;;;16.35;;
42964;SDS011;28604;51.204;22.552;2022-09-30T05:54:22;22.73;;;15.75;;
42964;SDS011;28604;51.204;22.552;2022-09-30T05:56:47;19.08;;;14.43;;
42964;SDS011;28604;51.204;22.552;2022-09-30T05:59:13;24.70;;;15.38;;
42964;SDS011;28604;51.204;22.552;2022-09-30T06:01:39;21.05;;;16.20;;
42964;SDS011;28604;51.204;22.552;2022-09-30T06:04:05;26.08;;;17.60;;
42964;SDS011;28604;51.204;22.552;2022-09-30T06:06:31;25.70;;;17.25;;
42964;SDS011;28604;51.204;22.552;2022-09-30T06:08:57;24.75;;;16.92;;
42964;SDS011;28604;51.204;22.552;2022-09-30T06:11:24;26.65;;;18.38;;
42964;SDS011;28604;51.204;22.552;2022-09-30T06:13:50;40.63;;;20.40;;
42964;SDS011;28604;51.204;22.552;2022-09-30T06:16:17;27.52;;;19.15;;
42964;SDS011;28604;51.204;22.552;2022-09-30T06:18:44;30.88;;;20.05;;
42964;SDS011;28604;51.204;22.552;2022-09-30T06:21:11;34.72;;;20.13;;
42964;SDS011;28604;51.204;22.552;2022-09-30T06:23:39;35.50;;;19.95;;
42964;SDS011;28604;51.204;22.552;2022-09-30T06:26:06;23.65;;;18.35;;
42964;SDS011;28604;51.204;22.552;2022-09-30T06:28:33;27.52;;;16.65;;
42964;SDS011;28604;51.204;22.552;2022-09-30T06:31:03;23.92;;;16.52;;
42964;SDS011;28604;51.204;22.552;2022-09-30T06:33:29;23.13;;;15.70;;
42964;SDS011;28604;51.204;22.552;2022-09-30T06:35:56;27.58;;;15.45;;
42964;SDS011;28604;51.204;22.552;2022-09-30T06:38:22;20.60;;;14.25;;
42964;SDS011;28604;51.204;22.552;2022-09-30T06:40:48;17.33;;;14.27;;
42964;SDS011;28604;51.204;22.552;2022-09-30T06:43:15;17.33;;;13.48;;
42964;SDS011;28604;51.204;22.552;2022-09-30T06:45:43;20.65;;;13.88;;
42964;SDS011;28604;51.204;22.552;2022-09-30T06:48:10;17.77;;;13.73;;
42964;SDS011;28604;51.204;22.552;2022-09-30T06:50:37;15.60;;;13.20;;
42964;SDS011;28604;51.204;22.552;2022-09-30T06:53:04;24.73;;;14.40;;
42964;SDS011;28604;51.204;22.552;2022-09-30T06:55:31;19.77;;;14.45;;
42964;SDS011;28604;51.204;22.552;2022-09-30T06:57:58;18.30;;;14.50;;
42964;SDS011;28604;51.204;22.552;2022-09-30T07:00:24;25.25;;;15.70;;
42964;SDS011;28604;51.204;22.552;2022-09-30T07:02:53;25.77;;;14.10;;
42964;SDS011;28604;51.204;22.552;2022-09-30T07:05:21;23.20;;;14.13;;
42964;SDS011;28604;51.204;22.552;2022-09-30T07:07:49;22.02;;;14.45;;
42964;SDS011;28604;51.204;22.552;2022-09-30T07:10:16;27.05;;;14.90;;
42964;SDS011;28604;51.204;22.552;2022-09-30T07:12:43;20.25;;;15.10;;
42964;SDS011;28604;51.204;22.552;2022-09-30T07:15:09;20.67;;;14.80;;
42964;SDS011;28604;51.204;22.552;2022-09-30T07:17:35;21.95;;;18.00;;
42964;SDS011;28604;51.204;22.552;2022-09-30T07:20:01;21.80;;;16.75;;
42964;SDS011;28604;51.204;22.552;2022-09-30T07:22:26;27.02;;;17.92;;
42964;SDS011;28604;51.204;22.552;2022-09-30T07:24:54;22.50;;;14.63;;
42964;SDS011;28604;51.204;22.552;2022-09-30T07:27:22;20.65;;;14.45;;
42964;SDS011;28604;51.204;22.552;2022-09-30T07:29:50;17.83;;;13.65;;
42964;SDS011;28604;51.204;22.552;2022-09-30T07:32:16;25.58;;;13.70;;
42964;SDS011;28604;51.204;22.552;2022-09-30T07:34:44;15.93;;;13.65;;
42964;SDS011;28604;51.204;22.552;2022-09-30T07:37:11;19.27;;;15.60;;
42964;SDS011;28604;51.204;22.552;2022-09-30T07:39:39;17.15;;;14.60;;
42964;SDS011;28604;51.204;22.552;2022-09-30T07:42:07;20.38;;;13.75;;
42964;SDS011;28604;51.204;22.552;2022-09-30T07:44:33;18.92;;;13.38;;
42964;SDS011;28604;51.204;22.552;2022-09-30T07:47:01;17.48;;;13.15;;
42964;SDS011;28604;51.204;22.552;2022-09-30T07:49:27;17.92;;;12.57;;
42964;SDS011;28604;51.204;22.552;2022-09-30T07:51:55;17.60;;;14.10;;
42964;SDS011;28604;51.204;22.552;2022-09-30T07:54:24;17.55;;;14.25;;
42964;SDS011;28604;51.204;22.552;2022-09-30T07:56:52;16.42;;;13.27;;
42964;SDS011;28604;51.204;22.552;2022-09-30T07:59:19;18.55;;;13.85;;
42964;SDS011;28604;51.204;22.552;2022-09-30T08:01:46;23.08;;;13.43;;
42964;SDS011;28604;51.204;22.552;2022-09-30T08:04:12;17.00;;;13.27;;
42964;SDS011;28604;51.204;22.552;2022-09-30T08:06:41;19.88;;;14.05;;
42964;SDS011;28604;51.204;22.552;2022-09-30T08:09:09;18.65;;;13.60;;
42964;SDS011;28604;51.204;22.552;2022-09-30T08:11:36;21.23;;;14.77;;
42964;SDS011;28604;51.204;22.552;2022-09-30T08:14:03;18.80;;;13.68;;
42964;SDS011;28604;51.204;22.552;2022-09-30T08:16:30;23.33;;;15.85;;
42964;SDS011;28604;51.204;22.552;2022-09-30T08:18:57;19.15;;;14.82;;
42964;SDS011;28604;51.204;22.552;2022-09-30T08:21:25;23.00;;;15.82;;
42964;SDS011;28604;51.204;22.552;2022-09-30T08:23:51;19.25;;;14.48;;
42964;SDS011;28604;51.204;22.552;2022-09-30T08:26:18;22.38;;;14.18;;
42964;SDS011;28604;51.204;22.552;2022-09-30T08:28:44;23.52;;;13.23;;
42964;SDS011;28604;51.204;22.552;2022-09-30T08:31:14;20.70;;;12.77;;
42964;SDS011;28604;51.204;22.552;2022-09-30T08:33:43;20.05;;;12.75;;
42964;SDS011;28604;51.204;22.552;2022-09-30T08:36:10;15.15;;;12.85;;
42964;SDS011;28604;51.204;22.552;2022-09-30T08:38:41;19.52;;;13.10;;
42964;SDS011;28604;51.204;22.552;2022-09-30T08:44:03;21.48;;;13.50;;
42964;SDS011;28604;51.204;22.552;2022-09-30T08:49:22;18.92;;;12.20;;
42964;SDS011;28604;51.204;22.552;2022-09-30T08:52:03;15.73;;;11.38;;
42964;SDS011;28604;51.204;22.552;2022-09-30T08:54:35;17.17;;;11.43;;
42964;SDS011;28604;51.204;22.552;2022-09-30T08:57:02;14.93;;;11.43;;
42964;SDS011;28604;51.204;22.552;2022-09-30T08:59:31;17.52;;;10.88;;
42964;SDS011;28604;51.204;22.552;2022-09-30T09:05:23;11.90;;;9.95;;
42964;SDS011;28604;51.204;22.552;2022-09-30T09:08:05;11.48;;;9.13;;
42964;SDS011;28604;51.204;22.552;2022-09-30T09:11:13;18.00;;;9.88;;
42964;SDS011;28604;51.204;22.552;2022-09-30T09:13:59;18.23;;;8.48;;
42964;SDS011;28604;51.204;22.552;2022-09-30T09:16:35;10.85;;;7.55;;
42964;SDS011;28604;51.204;22.552;2022-09-30T09:19:10;12.05;;;7.70;;
42964;SDS011;28604;51.204;22.552;2022-09-30T09:24:15;8.30;;;6.43;;
42964;SDS011;28604;51.204;22.552;2022-09-30T09:26:45;7.95;;;7.10;;
42964;SDS011;28604;51.204;22.552;2022-09-30T09:29:28;10.60;;;6.38;;
42964;SDS011;28604;51.204;22.552;2022-09-30T09:32:14;10.25;;;7.28;;
42964;SDS011;28604;51.204;22.552;2022-09-30T09:34:42;14.00;;;8.13;;
42964;SDS011;28604;51.204;22.552;2022-09-30T09:42:46;11.90;;;9.05;;
42964;SDS011;28604;51.204;22.552;2022-09-30T09:46:08;9.25;;;7.80;;
42964;SDS011;28604;51.204;22.552;2022-09-30T09:48:18;9.48;;;7.25;;
42964;SDS011;28604;51.204;22.552;2022-09-30T09:50:59;14.75;;;9.75;;
42964;SDS011;28604;51.204;22.552;2022-09-30T09:56:21;15.15;;;10.98;;
42964;SDS011;28604;51.204;22.552;2022-09-30T10:01:39;13.30;;;9.50;;
42964;SDS011;28604;51.204;22.552;2022-09-30T10:04:14;19.85;;;10.05;;
42964;SDS011;28604;51.204;22.552;2022-09-30T10:09:31;11.30;;;10.15;;
42964;SDS011;28604;51.204;22.552;2022-09-30T10:14:41;13.65;;;10.50;;
42964;SDS011;28604;51.204;22.552;2022-09-30T10:17:17;14.50;;;10.18;;
42964;SDS011;28604;51.204;22.552;2022-09-30T10:19:52;15.23;;;10.40;;
42964;SDS011;28604;51.204;22.552;2022-09-30T10:22:29;13.32;;;9.23;;
42964;SDS011;28604;51.204;22.552;2022-09-30T10:25:29;13.57;;;10.95;;
42964;SDS011;28604;51.204;22.552;2022-09-30T10:27:51;11.88;;;10.50;;
42964;SDS011;28604;51.204;22.552;2022-09-30T10:30:34;13.88;;;10.00;;
42964;SDS011;28604;51.204;22.552;2022-09-30T10:33:03;13.27;;;10.43;;
42964;SDS011;28604;51.204;22.552;2022-09-30T10:35:55;11.80;;;10.57;;
42964;SDS011;28604;51.204;22.552;2022-09-30T10:38:22;15.63;;;11.88;;
42964;SDS011;28604;51.204;22.552;2022-09-30T10:40:50;14.40;;;12.45;;
42964;SDS011;28604;51.204;22.552;2022-09-30T10:43:39;12.27;;;10.95;;
42964;SDS011;28604;51.204;22.552;2022-09-30T10:46:09;11.13;;;9.90;;
42964;SDS011;28604;51.204;22.552;2022-09-30T10:48:35;11.85;;;9.07;;
42964;SDS011;28604;51.204;22.552;2022-09-30T10:51:03;12.23;;;9.15;;
42964;SDS011;28604;51.204;22.552;2022-09-30T10:53:41;10.43;;;8.90;;
42964;SDS011;28604;51.204;22.552;2022-09-30T10:56:08;10.57;;;9.18;;
42964;SDS011;28604;51.204;22.552;2022-09-30T11:01:21;15.90;;;9.25;;
42964;SDS011;28604;51.204;22.552;2022-09-30T11:06:30;13.13;;;8.52;;
42964;SDS011;28604;51.204;22.552;2022-09-30T11:09:01;10.23;;;9.15;;
42964;SDS011;28604;51.204;22.552;2022-09-30T11:11:56;12.45;;;9.55;;
42964;SDS011;28604;51.204;22.552;2022-09-30T11:14:42;14.43;;;8.55;;
42964;SDS011;28604;51.204;22.552;2022-09-30T11:17:26;12.48;;;9.13;;
42964;SDS011;28604;51.204;22.552;2022-09-30T11:20:32;13.32;;;8.95;;
42964;SDS011;28604;51.204;22.552;2022-09-30T11:23:18;15.50;;;8.73;;
42964;SDS011;28604;51.204;22.552;2022-09-30T11:25:54;15.65;;;10.38;;
42964;SDS011;28604;51.204;22.552;2022-09-30T11:28:38;12.38;;;9.98;;
42964;SDS011;28604;51.204;22.552;2022-09-30T11:40:33;12.45;;;9.65;;
42964;SDS011;28604;51.204;22.552;2022-09-30T11:45:28;11.75;;;8.95;;
42964;SDS011;28604;51.204;22.552;2022-09-30T11:48:05;16.63;;;9.82;;
42964;SDS011;28604;51.204;22.552;2022-09-30T11:50:56;14.85;;;8.93;;
42964;SDS011;28604;51.204;22.552;2022-09-30T11:56:31;9.90;;;8.90;;
42964;SDS011;28604;51.204;22.552;2022-09-30T11:59:02;16.33;;;10.13;;
42964;SDS011;28604;51.204;22.552;2022-09-30T12:01:33;14.68;;;10.30;;
42964;SDS011;28604;51.204;22.552;2022-09-30T12:04:14;12.35;;;9.68;;
42964;SDS011;28604;51.204;22.552;2022-09-30T12:06:55;12.15;;;10.85;;
42964;SDS011;28604;51.204;22.552;2022-09-30T12:09:31;15.75;;;12.00;;
42964;SDS011;28604;51.204;22.552;2022-09-30T12:12:07;12.75;;;11.38;;
42964;SDS011;28604;51.204;22.552;2022-09-30T12:17:24;13.45;;;11.32;;
42964;SDS011;28604;51.204;22.552;2022-09-30T12:19:55;13.75;;;10.50;;
42964;SDS011;28604;51.204;22.552;2022-09-30T12:22:29;10.90;;;9.77;;
42964;SDS011;28604;51.204;22.552;2022-09-30T12:25:16;13.50;;;10.25;;
42964;SDS011;28604;51.204;22.552;2022-09-30T12:27:53;12.32;;;10.07;;
42964;SDS011;28604;51.204;22.552;2022-09-30T12:30:53;15.07;;;10.18;;
42964;SDS011;28604;51.204;22.552;2022-09-30T12:33:36;13.70;;;9.38;;
42964;SDS011;28604;51.204;22.552;2022-09-30T12:49:56;17.70;;;11.63;;
42964;SDS011;28604;51.204;22.552;2022-09-30T12:52:25;13.63;;;10.60;;
42964;SDS011;28604;51.204;22.552;2022-09-30T12:55:20;14.77;;;9.95;;
42964;SDS011;28604;51.204;22.552;2022-09-30T12:57:56;13.38;;;10.18;;
42964;SDS011;28604;51.204;22.552;2022-09-30T13:00:26;13.00;;;10.40;;
42964;SDS011;28604;51.204;22.552;2022-09-30T13:03:20;12.00;;;10.80;;
42964;SDS011;28604;51.204;22.552;2022-09-30T13:05:46;13.13;;;10.90;;
42964;SDS011;28604;51.204;22.552;2022-09-30T13:08:21;12.85;;;10.68;;
42964;SDS011;28604;51.204;22.552;2022-09-30T13:10:59;11.55;;;9.40;;
42964;SDS011;28604;51.204;22.552;2022-09-30T13:13:30;11.63;;;10.05;;
42964;SDS011;28604;51.204;22.552;2022-09-30T13:15:59;13.40;;;9.20;;
42964;SDS011;28604;51.204;22.552;2022-09-30T13:31:28;7.78;;;6.38;;
42964;SDS011;28604;51.204;22.552;2022-09-30T13:36:38;11.73;;;6.90;;
42964;SDS011;28604;51.204;22.552;2022-09-30T13:42:02;11.02;;;5.93;;
42964;SDS011;28604;51.204;22.552;2022-09-30T13:50:28;10.98;;;8.25;;
42964;SDS011;28604;51.204;22.552;2022-09-30T13:52:58;9.40;;;6.93;;
42964;SDS011;28604;51.204;22.552;2022-09-30T13:55:43;8.18;;;6.38;;
42964;SDS011;28604;51.204;22.552;2022-09-30T14:01:20;8.27;;;6.68;;
42964;SDS011;28604;51.204;22.552;2022-09-30T14:12:28;7.57;;;6.53;;
42964;SDS011;28604;51.204;22.552;2022-09-30T14:17:52;8.45;;;7.07;;
42964;SDS011;28604;51.204;22.552;2022-09-30T14:20:38;8.07;;;6.95;;
42964;SDS011;28604;51.204;22.552;2022-09-30T14:23:13;7.85;;;7.03;;
42964;SDS011;28604;51.204;22.552;2022-09-30T14:25:43;8.05;;;6.70;;
42964;SDS011;28604;51.204;22.552;2022-09-30T14:28:43;10.13;;;7.15;;
42964;SDS011;28604;51.204;22.552;2022-09-30T14:31:17;10.48;;;7.70;;
42964;SDS011;28604;51.204;22.552;2022-09-30T14:33:46;11.27;;;8.13;;
42964;SDS011;28604;51.204;22.552;2022-09-30T14:36:18;8.80;;;7.93;;
42964;SDS011;28604;51.204;22.552;2022-09-30T14:38:48;9.88;;;8.18;;
42964;SDS011;28604;51.204;22.552;2022-09-30T14:41:25;10.07;;;8.32;;
42964;SDS011;28604;51.204;22.552;2022-09-30T14:43:55;9.35;;;8.27;;
42964;SDS011;28604;51.204;22.552;2022-09-30T14:46:39;12.40;;;8.25;;
42964;SDS011;28604;51.204;22.552;2022-09-30T14:49:12;8.98;;;7.68;;
42964;SDS011;28604;51.204;22.552;2022-09-30T14:51:43;9.10;;;8.20;;
42964;SDS011;28604;51.204;22.552;2022-09-30T14:54:22;9.20;;;8.30;;
42964;SDS011;28604;51.204;22.552;2022-09-30T14:56:56;10.25;;;8.10;;
42964;SDS011;28604;51.204;22.552;2022-09-30T14:59:26;9.23;;;8.27;;
42964;SDS011;28604;51.204;22.552;2022-09-30T15:01:59;9.23;;;8.40;;
42964;SDS011;28604;51.204;22.552;2022-09-30T15:04:28;9.75;;;7.88;;
42964;SDS011;28604;51.204;22.552;2022-09-30T15:06:59;9.70;;;8.70;;
42964;SDS011;28604;51.204;22.552;2022-09-30T15:09:31;8.23;;;7.53;;
42964;SDS011;28604;51.204;22.552;2022-09-30T15:12:15;13.80;;;9.70;;
42964;SDS011;28604;51.204;22.552;2022-09-30T15:17:26;10.35;;;9.32;;
42964;SDS011;28604;51.204;22.552;2022-09-30T15:20:21;8.73;;;7.88;;
42964;SDS011;28604;51.204;22.552;2022-09-30T15:22:49;9.80;;;8.27;;
42964;SDS011;28604;51.204;22.552;2022-09-30T15:25:18;13.50;;;8.55;;
42964;SDS011;28604;51.204;22.552;2022-09-30T15:27:45;11.05;;;8.88;;
42964;SDS011;28604;51.204;22.552;2022-09-30T15:32:41;11.13;;;8.73;;
42964;SDS011;28604;51.204;22.552;2022-09-30T15:37:44;9.15;;;8.25;;
42964;SDS011;28604;51.204;22.552;2022-09-30T15:40:13;11.60;;;8.98;;
42964;SDS011;28604;51.204;22.552;2022-09-30T15:43:01;15.48;;;9.73;;
42964;SDS011;28604;51.204;22.552;2022-09-30T15:45:43;13.93;;;10.20;;
42964;SDS011;28604;51.204;22.552;2022-09-30T15:50:58;16.83;;;11.30;;
42964;SDS011;28604;51.204;22.552;2022-09-30T15:53:29;16.38;;;11.30;;
42964;SDS011;28604;51.204;22.552;2022-09-30T15:56:14;20.58;;;12.43;;
42964;SDS011;28604;51.204;22.552;2022-09-30T15:58:40;15.35;;;10.55;;
42964;SDS011;28604;51.204;22.552;2022-09-30T16:01:25;18.33;;;12.05;;
42964;SDS011;28604;51.204;22.552;2022-09-30T16:04:03;12.25;;;10.75;;
42964;SDS011;28604;51.204;22.552;2022-09-30T16:06:57;13.38;;;10.95;;
42964;SDS011;28604;51.204;22.552;2022-09-30T16:09:32;16.65;;;10.35;;
42964;SDS011;28604;51.204;22.552;2022-09-30T16:12:01;12.98;;;10.45;;
42964;SDS011;28604;51.204;22.552;2022-09-30T16:14:32;12.18;;;9.70;;
42964;SDS011;28604;51.204;22.552;2022-09-30T16:17:00;12.38;;;10.80;;
42964;SDS011;28604;51.204;22.552;2022-09-30T16:19:28;13.70;;;11.25;;
42964;SDS011;28604;51.204;22.552;2022-09-30T16:21:55;11.73;;;10.32;;
42964;SDS011;28604;51.204;22.552;2022-09-30T16:26:55;13.07;;;10.52;;
42964;SDS011;28604;51.204;22.552;2022-09-30T16:30:00;15.88;;;13.65;;
42964;SDS011;28604;51.204;22.552;2022-09-30T16:32:27;14.43;;;11.68;;
42964;SDS011;28604;51.204;22.552;2022-09-30T16:34:55;18.13;;;11.73;;
42964;SDS011;28604;51.204;22.552;2022-09-30T16:37:22;14.63;;;12.30;;
42964;SDS011;28604;51.204;22.552;2022-09-30T16:39:48;14.18;;;12.55;;
42964;SDS011;28604;51.204;22.552;2022-09-30T16:42:14;14.27;;;10.90;;
42964;SDS011;28604;51.204;22.552;2022-09-30T16:44:41;13.38;;;11.27;;
42964;SDS011;28604;51.204;22.552;2022-09-30T16:47:11;16.55;;;11.82;;
42964;SDS011;28604;51.204;22.552;2022-09-30T16:49:38;14.50;;;10.95;;
42964;SDS011;28604;51.204;22.552;2022-09-30T16:52:07;14.73;;;11.55;;
42964;SDS011;28604;51.204;22.552;2022-09-30T16:54:35;14.75;;;11.98;;
42964;SDS011;28604;51.204;22.552;2022-09-30T16:57:02;17.15;;;11.95;;
42964;SDS011;28604;51.204;22.552;2022-09-30T16:59:28;19.73;;;13.73;;
42964;SDS011;28604;51.204;22.552;2022-09-30T17:01:57;16.50;;;12.98;;
42964;SDS011;28604;51.204;22.552;2022-09-30T17:04:25;18.02;;;13.52;;
42964;SDS011;28604;51.204;22.552;2022-09-30T17:06:52;21.98;;;15.00;;
42964;SDS011;28604;51.204;22.552;2022-09-30T17:09:20;15.65;;;12.82;;
42964;SDS011;28604;51.204;22.552;2022-09-30T17:11:46;18.23;;;14.55;;
42964;SDS011;28604;51.204;22.552;2022-09-30T17:14:14;22.48;;;15.43;;
42964;SDS011;28604;51.204;22.552;2022-09-30T17:16:41;18.42;;;12.98;;
42964;SDS011;28604;51.204;22.552;2022-09-30T17:19:07;21.55;;;14.65;;
42964;SDS011;28604;51.204;22.552;2022-09-30T17:21:33;20.48;;;13.63;;
42964;SDS011;28604;51.204;22.552;2022-09-30T17:23:59;17.70;;;13.30;;